Latest Weather Observations for Gove Airport

IDD60801

Issued at 11:01 am CST Friday 26 August 2016 (issued every 30 minutes, with the page automatically refreshed every 10 minutes)

About weather observations | Map of weather stations | Latest weather observations for NT | Other Formats
Station Details ID: 014508 Name: GOVE AIRPORT Lat: -12.27 Lon: 136.82 Height: 51.6 m
Data from the previous 72 hours. | See also: Recent months at Gove Airport
Date/Time
CST
Temp
°C
App
Temp
°C
Dew
Point
°C
Rel
Hum
%
Delta-T
°C
Wind Press
QNH
hPa
Press
MSL
hPa
Rain since
9am
mm
Dir  Spd
km/h
Gust
km/h
Spd
kts
Gust
kts
26/11:00am 27.0 23.2 15.7 50 6.9 SE 30 43 16 23 1016.5 1016.2 0.0
26/10:39am 27.6 23.5 15.9 49 7.2 SE 32 52 17 28 1016.4 1016.1 0.0
26/10:30am 27.1 22.7 15.7 49 7.0 SE 33 44 18 24 1016.5 1016.2 0.0
26/10:08am 27.0 22.9 15.9 50 6.8 SE 32 50 17 27 1016.6 1016.3 0.0
26/10:00am 26.3 22.6 16.0 53 6.3 SE 30 46 16 25 1016.7 1016.4 0.0
26/09:30am 26.2 23.4 17.2 57 5.6 SE 28 37 15 20 1016.7 1016.4 0.0
26/09:00am 26.8 23.8 16.8 54 6.2 SE 28 44 15 24 1016.5 1016.2 0.0
26/08:30am 26.6 24.9 17.2 56 5.9 SE 22 35 12 19 1016.0 1015.7 0.0
26/08:00am 25.6 23.7 17.6 61 5.0 SE 24 41 13 22 1015.5 1015.2 0.0
26/07:30am 25.3 24.7 18.4 65 4.4 SE 19 26 10 14 1015.4 1015.1 0.0
26/07:00am 25.0 24.4 18.5 67 4.1 SE 19 28 10 15 1015.1 1014.8 0.0
26/06:30am 24.4 24.5 19.9 76 2.9 SE 19 24 10 13 1014.6 1014.3 0.0
26/06:00am 24.1 25.7 20.7 81 2.2 SE 13 19 7 10 1013.9 1013.6 0.0
26/05:30am 24.3 25.6 20.8 81 2.3 SE 15 24 8 13 1013.7 1013.4 0.0
26/05:00am 24.1 25.4 20.9 82 2.1 SE 15 20 8 11 1013.4 1013.1 0.0
26/04:30am 23.8 25.6 21.1 85 1.8 SE 13 19 7 10 1013.2 1012.9 0.0
26/04:00am 23.5 25.3 21.1 86 1.6 SE 13 17 7 9 1013.0 1012.7 0.0
26/03:30am 23.6 25.5 21.3 87 1.5 SE 13 15 7 8 1013.0 1012.7 0.0
26/03:00am 23.7 25.6 21.3 86 1.6 ESE 13 20 7 11 1013.0 1012.7 0.0
26/02:30am 23.8 25.2 21.1 85 1.8 ESE 15 19 8 10 1013.0 1012.7 0.0
26/02:00am 23.9 25.3 21.0 84 1.9 SE 15 20 8 11 1013.1 1012.8 0.0
26/01:30am 24.2 24.5 20.8 81 2.2 SE 20 28 11 15 1013.4 1013.1 0.0
26/01:00am 24.2 24.8 21.0 82 2.1 SE 19 26 10 14 1013.4 1013.1 0.0
26/12:30am 24.6 25.4 21.3 82 2.2 SE 19 28 10 15 1013.6 1013.3 0.0
26/12:00am 24.5 25.3 21.3 82 2.1 SE 19 28 10 15 1013.7 1013.4 0.0
 
Date/Time
CST
Temp
°C
App
Temp
°C
Dew
Point
°C
Rel
Hum
%
Delta-T
°C
Wind Press
QNH
hPa
Press
MSL
hPa
Rain since
9am
mm
Dir  Spd
km/h
Gust
km/h
Spd
kts
Gust
kts
25/11:30pm 24.7 24.9 21.4 82 2.2 SE 22 32 12 17 1013.8 1013.5 0.0
25/11:00pm 24.9 25.7 21.7 82 2.1 SE 20 28 11 15 1013.8 1013.5 0.0
25/10:30pm 25.0 25.8 21.7 82 2.2 SE 20 28 11 15 1013.6 1013.3 0.0
25/10:00pm 25.1 25.9 21.8 82 2.2 SE 20 26 11 14 1013.6 1013.3 0.0
25/09:30pm 25.0 25.9 21.9 83 2.1 SE 20 28 11 15 1013.2 1012.9 0.0
25/09:00pm 25.1 26.0 22.0 83 2.1 SE 20 30 11 16 1012.9 1012.6 0.0
25/08:30pm 25.2 26.8 22.1 83 2.1 SE 17 28 9 15 1012.5 1012.2 0.0
25/08:29pm 25.2 26.4 22.1 83 2.1 SE 19 28 10 15 1012.4 1012.1 0.0
25/08:00pm 25.2 26.9 22.4 84 1.9 SE 17 26 9 14 1012.1 1011.8 0.0
25/07:55pm 25.1 26.4 22.4 85 1.8 SE 19 26 10 14 1012.0 1011.7 0.0
25/07:30pm 25.4 27.1 22.3 83 2.1 SE 17 24 9 13 1011.7 1011.4 0.0
25/07:00pm 25.4 26.7 22.3 83 2.1 SE 19 26 10 14 1011.3 1011.0 0.0
25/06:52pm 25.5 26.7 22.1 81 2.3 SE 19 30 10 16 1011.2 1010.9 0.0
25/06:30pm 25.8 27.1 22.4 81 2.3 SE 19 26 10 14 1011.2 1010.9 0.0
25/06:19pm 26.0 27.1 22.4 80 2.4 ESE 20 30 11 16 1011.2 1010.9 0.0
25/06:00pm 26.4 28.1 22.4 78 2.7 SE 17 20 9 11 1011.0 1010.7 0.0
25/05:30pm 26.6 28.3 22.3 77 2.9 SSE 17 26 9 14 1010.6 1010.3 0.0
25/05:00pm 26.9 27.9 21.8 73 3.4 SSE 19 26 10 14 1010.4 1010.1 0.0
25/04:30pm 28.1 28.1 20.9 65 4.8 SE 22 30 12 16 1010.1 1009.8 0.0
25/04:00pm 28.7 28.9 20.5 61 5.4 SE 20 32 11 17 1010.1 1009.8 0.0
25/03:30pm 28.9 29.1 20.6 61 5.5 SE 20 26 11 14 1010.0 1009.7 0.0
25/03:00pm 29.7 29.5 19.3 53 6.8 ESE 19 30 10 16 1009.9 1009.6 0.0
25/02:30pm 29.1 29.1 20.2 58 5.9 E 20 26 11 14 1010.0 1009.7 0.0
25/02:00pm 28.9 30.4 20.6 61 5.5 E 13 20 7 11 1010.2 1009.9 0.0
25/01:30pm 29.2 29.9 20.4 59 5.8 ENE 17 26 9 14 1010.5 1010.2 0.0
25/01:00pm 29.0 30.2 19.9 58 6.0 E 13 19 7 10 1010.8 1010.5 0.0
25/12:30pm 28.9 30.3 21.1 62 5.2 NE 15 24 8 13 1011.2 1010.9 0.0
25/12:00pm 28.6 30.4 21.1 64 5.0 NE 13 20 7 11 1011.6 1011.3 0.0
25/11:30am 28.7 30.4 20.9 62 5.2 ENE 13 30 7 16 1011.9 1011.6 0.0
25/11:00am 29.6 32.4 20.9 59 5.8 SE 7 15 4 8 1012.4 1012.1 0.0
25/10:30am 28.8 31.9 21.0 62 5.2 ESE 6 9 3 5 1012.8 1012.5 0.0
25/10:00am 27.3 30.3 21.3 69 4.0 NNE 7 11 4 6 1013.1 1012.8 0.0
25/09:30am 27.0 30.7 21.5 72 3.7 WNW 4 7 2 4 1013.4 1013.1 0.0
25/09:00am 26.7 29.5 21.6 73 3.4 NE 9 13 5 7 1012.9 1012.6 -
25/08:30am 26.8 28.9 21.7 73 3.4 N 13 17 7 9 1012.6 1012.3 -
25/08:00am 25.6 29.1 22.9 85 1.8 N 9 13 5 7 1012.3 1012.0 -
25/07:30am 23.9 28.6 22.7 93 0.8 NNE 2 6 1 3 1012.1 1011.8 -
25/07:00am 21.8 26.0 21.0 95 0.5 CALM 0 0 0 0 1011.9 1011.6 -
25/06:30am 21.0 24.8 20.2 95 0.5 CALM 0 0 0 0 1011.7 1011.4 -
25/06:03am 21.2 25.3 20.7 97 0.3 CALM 0 0 0 0 1011.2 1010.9 -
25/06:00am 21.2 25.2 20.6 96 0.4 CALM 0 0 0 0 1011.2 1010.9 -
25/05:46am 21.3 24.2 20.7 96 0.4 S 6 7 3 4 1011.2 1010.9 -
25/05:30am 21.4 25.4 20.6 95 0.5 CALM 0 0 0 0 1010.9 1010.6 -
25/05:00am 21.4 25.4 20.6 95 0.5 CALM 0 0 0 0 1010.7 1010.4 -
25/04:30am 22.1 26.4 21.2 95 0.6 CALM 0 0 0 0 1010.6 1010.3 -
25/04:00am 22.2 26.7 21.6 96 0.4 CALM 0 0 0 0 1010.4 1010.1 -
25/03:30am 22.0 25.6 21.2 95 0.5 WNW 4 6 2 3 1010.5 1010.2 -
25/03:00am 22.1 24.9 21.6 97 0.3 SSW 9 11 5 6 1010.6 1010.3 0.0
25/02:30am 22.2 26.2 21.4 95 0.5 WNW 2 7 1 4 1010.2 1009.9 -
25/02:00am 22.6 27.2 21.7 95 0.6 CALM 0 0 0 0 1010.3 1010.0 -
25/01:30am 23.9 27.6 22.6 92 0.9 N 7 9 4 5 1010.4 1010.1 -
25/01:00am 24.2 27.6 22.7 91 1.0 N 9 13 5 7 1010.6 1010.3 -
25/12:30am 24.0 27.3 22.5 91 1.0 NNE 9 11 5 6 1011.0 1010.7 -
25/12:26am 24.0 27.2 22.4 91 1.1 NNE 9 11 5 6 1011.0 1010.7 -
25/12:00am 24.2 27.9 22.6 91 1.1 NNE 7 7 4 4 1011.5 1011.2 -
 
Date/Time
CST
Temp
°C
App
Temp
°C
Dew
Point
°C
Rel
Hum
%
Delta-T
°C
Wind Press
QNH
hPa
Press
MSL
hPa
Rain since
9am
mm
Dir  Spd
km/h
Gust
km/h
Spd
kts
Gust
kts
24/11:47pm 24.3 28.0 22.5 90 1.2 NNE 7 9 4 5 1011.5 1011.2 -
24/11:30pm 24.2 28.0 22.4 90 1.2 NNE 6 7 3 4 1011.6 1011.3 -
24/11:00pm 24.6 28.6 22.7 89 1.3 NNE 6 9 3 5 1011.5 1011.2 -
24/10:30pm 24.7 28.0 22.6 88 1.4 NNE 9 11 5 6 1011.3 1011.0 -
24/10:00pm 24.8 28.0 22.4 86 1.6 NNE 9 9 5 5 1011.1 1010.8 -
24/09:30pm 25.0 28.1 22.2 84 1.9 NNE 9 11 5 6 1011.0 1010.7 -
24/09:00pm 25.1 28.0 21.8 82 2.2 N 9 13 5 7 1010.7 1010.4 -
24/08:30pm 25.2 27.8 21.9 82 2.2 N 11 13 6 7 1010.4 1010.1 -
24/08:00pm 25.3 28.3 22.0 82 2.2 N 9 13 5 7 1010.1 1009.8 -
24/07:30pm 25.4 28.1 22.1 82 2.2 N 11 13 6 7 1009.9 1009.6 -
24/07:00pm 25.7 28.8 22.1 80 2.4 NNE 9 13 5 7 1009.6 1009.3 -
24/06:30pm 26.0 29.1 22.1 79 2.6 N 9 13 5 7 1009.2 1008.9 -
24/06:00pm 26.5 28.7 21.9 76 3.1 N 13 17 7 9 1008.8 1008.5 -
24/05:30pm 27.4 28.3 20.1 64 4.8 N 15 20 8 11 1008.8 1008.5 -
24/05:00pm 27.7 28.6 20.9 66 4.5 N 17 24 9 13 1008.6 1008.3 -
24/04:30pm 28.1 29.3 21.4 67 4.5 N 17 22 9 12 1008.4 1008.1 -
24/02:02pm 30.6 29.5 18.7 49 7.7 N 22 32 12 17 1009.2 1008.9 0.0
24/02:00pm 30.3 29.3 18.9 50 7.4 N 22 32 12 17 1009.2 1008.9 0.0
24/01:30pm 29.7 28.3 19.6 54 6.6 N 26 35 14 19 1009.4 1009.1 0.0
24/01:00pm 30.1 29.2 19.8 54 6.8 N 24 30 13 16 1009.7 1009.4 0.0
24/12:30pm 30.7 31.2 20.1 53 7.0 NNW 17 28 9 15 1010.2 1009.9 0.0
24/12:00pm 30.3 30.7 19.1 51 7.3 NW 15 24 8 13 1010.7 1010.4 0.0
24/11:30am 29.7 30.1 18.2 50 7.4 NW 13 28 7 15 1011.2 1010.9 0.0
24/11:00am 29.1 29.3 19.3 55 6.4 WNW 17 24 9 13 1011.7 1011.4 0.0
24/10:30am 28.9 30.3 20.3 59 5.7 WNW 13 20 7 11 1012.1 1011.8 0.0
24/10:00am 28.6 29.2 20.3 60 5.5 WNW 17 24 9 13 1012.4 1012.1 0.0
24/09:30am 27.6 28.6 21.1 67 4.3 W 17 24 9 13 1012.9 1012.6 0.0
24/09:00am 26.8 29.5 22.2 76 3.1 W 11 17 6 9 1012.9 1012.6 0.0
24/08:30am 24.8 28.7 23.0 90 1.2 WSW 7 11 4 6 1012.9 1012.6 0.0
24/08:00am 24.8 28.4 23.0 90 1.2 W 9 13 5 7 1012.5 1012.2 0.0
24/07:30am 24.8 28.6 22.7 88 1.4 W 7 11 4 6 1012.1 1011.8 0.0
24/07:00am 23.2 26.8 22.3 95 0.6 WNW 7 9 4 5 1011.7 1011.4 0.0
24/06:30am 22.7 25.7 21.9 95 0.5 NW 9 9 5 5 1011.2 1010.9 0.0
24/06:00am 22.7 26.0 21.8 95 0.6 NNW 7 9 4 5 1010.7 1010.4 0.0
24/05:30am 22.8 25.8 22.0 95 0.5 NW 9 11 5 6 1010.4 1010.1 0.0
24/05:00am 23.1 26.2 22.2 95 0.6 WNW 9 11 5 6 1010.2 1009.9 0.0
24/04:30am 23.5 26.4 22.5 94 0.7 NNW 11 13 6 7 1009.8 1009.5 0.0
24/04:00am 23.6 26.6 22.6 94 0.7 NNW 11 15 6 8 1009.5 1009.2 0.0
24/03:30am 23.5 26.8 22.5 94 0.7 N 9 13 5 7 1009.4 1009.1 0.0
24/03:00am 23.5 26.8 22.5 94 0.7 NNW 9 11 5 6 1009.4 1009.1 0.0
24/02:30am 23.6 26.8 22.4 93 0.8 N 9 11 5 6 1009.5 1009.2 0.0
24/02:00am 23.7 27.0 22.5 93 0.8 N 9 11 5 6 1009.7 1009.4 0.0
24/01:30am 23.6 26.9 22.6 94 0.7 N 9 13 5 7 1009.8 1009.5 0.0
24/01:00am 23.4 27.0 22.4 94 0.7 N 7 9 4 5 1010.0 1009.7 0.0
24/12:30am 23.0 26.2 21.6 92 0.9 N 7 7 4 4 1010.1 1009.8 0.0
24/12:00am 23.8 27.6 22.8 94 0.7 N 7 9 4 5 1010.2 1009.9 0.0
 
Date/Time
CST
Temp
°C
App
Temp
°C
Dew
Point
°C
Rel
Hum
%
Delta-T
°C
Wind Press
QNH
hPa
Press
MSL
hPa
Rain since
9am
mm
Dir  Spd
km/h
Gust
km/h
Spd
kts
Gust
kts
23/11:30pm 23.9 27.7 22.7 93 0.8 N 7 11 4 6 1010.3 1010.0 0.0
23/11:00pm 23.9 27.6 22.6 92 0.9 N 7 9 4 5 1010.4 1010.1 0.0
23/10:30pm 24.0 27.8 22.7 92 0.9 N 7 9 4 5 1010.4 1010.1 0.0
23/10:00pm 24.2 27.9 22.6 91 1.1 N 7 9 4 5 1010.4 1010.1 0.0
23/09:30pm 23.8 27.5 22.2 91 1.1 N 6 7 3 4 1010.5 1010.2 0.0
23/09:00pm 24.5 28.2 22.6 89 1.3 N 7 9 4 5 1010.3 1010.0 0.0
23/08:30pm 24.7 28.0 22.5 87 1.5 N 9 11 5 6 1010.1 1009.8 0.0
23/08:00pm 24.9 28.0 22.2 85 1.8 N 9 11 5 6 1009.9 1009.6 0.0
23/07:30pm 25.1 28.2 22.1 83 2.0 N 9 11 5 6 1009.5 1009.2 0.0
23/07:00pm 25.5 28.4 21.8 80 2.5 N 9 13 5 7 1009.2 1008.9 0.0
23/06:30pm 25.9 27.8 21.4 76 3.0 N 13 17 7 9 1008.8 1008.5 0.0
23/06:00pm 26.4 27.4 21.1 72 3.5 N 17 20 9 11 1008.5 1008.2 0.0
23/05:30pm 27.5 28.7 21.5 70 4.0 N 17 24 9 13 1008.2 1007.9 0.0
23/05:00pm 27.6 28.1 21.1 67 4.3 N 20 26 11 14 1008.1 1007.8 0.0
23/04:30pm 27.9 28.4 21.2 67 4.5 NNW 20 28 11 15 1007.9 1007.6 0.0
23/04:00pm 28.4 28.7 20.7 63 5.1 N 20 28 11 15 1007.8 1007.5 0.0
23/03:30pm 28.6 28.5 20.8 62 5.2 NNW 22 33 12 18 1007.7 1007.4 0.0
23/03:00pm 28.9 29.5 21.3 63 5.1 N 20 30 11 16 1007.8 1007.5 0.0
23/02:30pm 29.5 29.7 21.3 61 5.5 N 22 30 12 16 1008.2 1007.9 0.0
23/02:00pm 29.2 29.8 21.3 62 5.3 N 20 30 11 16 1008.6 1008.3 0.0
23/01:30pm 29.0 29.8 21.7 64 4.9 N 20 28 11 15 1009.0 1008.7 0.0
23/01:00pm 29.1 29.3 21.3 62 5.2 N 22 28 12 15 1009.4 1009.1 0.0
23/12:30pm 28.3 28.5 20.6 63 5.1 N 20 30 11 16 1009.8 1009.5 0.0
23/12:00pm 28.2 28.5 21.5 67 4.5 NNE 22 30 12 16 1010.4 1010.1 0.0
23/11:30am 28.7 29.9 21.5 65 4.8 N 17 24 9 13 1011.0 1010.7 0.0

Other Formats:

Comma delimited format used in spreadsheet applications
http://www.bom.gov.au/fwo/IDD60801/IDD60801.94150.axf

JavaScript Object Notation format (JSON) in row-major order
http://www.bom.gov.au/fwo/IDD60801/IDD60801.94150.json